sensor_id;sensor_type;location;lat;lon;timestamp;temperature;humidity
32097;DHT22;18610;49.916;8.284;2023-07-31T00:01:46;18.10;99.90
32097;DHT22;18610;49.916;8.284;2023-07-31T00:04:13;18.10;99.90
32097;DHT22;18610;49.916;8.284;2023-07-31T00:06:41;18.10;99.90
32097;DHT22;18610;49.916;8.284;2023-07-31T00:09:08;18.10;99.90
32097;DHT22;18610;49.916;8.284;2023-07-31T00:11:34;18.10;99.90
32097;DHT22;18610;49.916;8.284;2023-07-31T00:14:01;18.10;99.90
32097;DHT22;18610;49.916;8.284;2023-07-31T00:16:28;18.20;99.90
32097;DHT22;18610;49.916;8.284;2023-07-31T00:18:54;18.20;99.90
32097;DHT22;18610;49.916;8.284;2023-07-31T00:21:21;18.10;99.90
32097;DHT22;18610;49.916;8.284;2023-07-31T00:23:49;18.20;99.90
32097;DHT22;18610;49.916;8.284;2023-07-31T00:26:16;18.20;99.90
32097;DHT22;18610;49.916;8.284;2023-07-31T00:28:42;18.20;99.90
32097;DHT22;18610;49.916;8.284;2023-07-31T00:31:09;18.20;99.90
32097;DHT22;18610;49.916;8.284;2023-07-31T00:33:36;18.20;99.90
32097;DHT22;18610;49.916;8.284;2023-07-31T00:36:03;18.20;99.90
32097;DHT22;18610;49.916;8.284;2023-07-31T00:38:29;18.20;99.90
32097;DHT22;18610;49.916;8.284;2023-07-31T00:40:57;18.20;99.90
32097;DHT22;18610;49.916;8.284;2023-07-31T00:43:24;18.20;99.90
32097;DHT22;18610;49.916;8.284;2023-07-31T00:45:51;18.20;99.90
32097;DHT22;18610;49.916;8.284;2023-07-31T00:48:18;18.20;99.90
32097;DHT22;18610;49.916;8.284;2023-07-31T00:50:45;18.20;99.90
32097;DHT22;18610;49.916;8.284;2023-07-31T00:53:11;18.20;99.90
32097;DHT22;18610;49.916;8.284;2023-07-31T00:55:39;18.20;99.90
32097;DHT22;18610;49.916;8.284;2023-07-31T00:58:07;18.10;99.90
32097;DHT22;18610;49.916;8.284;2023-07-31T01:00:34;18.20;99.90
32097;DHT22;18610;49.916;8.284;2023-07-31T01:03:01;18.20;99.90
32097;DHT22;18610;49.916;8.284;2023-07-31T01:05:33;18.10;99.90
32097;DHT22;18610;49.916;8.284;2023-07-31T01:08:08;18.20;99.90
32097;DHT22;18610;49.916;8.284;2023-07-31T01:10:41;18.20;99.90
32097;DHT22;18610;49.916;8.284;2023-07-31T01:13:15;18.10;99.90
32097;DHT22;18610;49.916;8.284;2023-07-31T01:15:41;18.10;99.90
32097;DHT22;18610;49.916;8.284;2023-07-31T01:18:08;18.10;99.90
32097;DHT22;18610;49.916;8.284;2023-07-31T01:20:35;18.10;99.90
32097;DHT22;18610;49.916;8.284;2023-07-31T01:23:19;18.10;99.90
32097;DHT22;18610;49.916;8.284;2023-07-31T01:26:10;18.10;99.90
32097;DHT22;18610;49.916;8.284;2023-07-31T01:28:44;18.10;99.90
32097;DHT22;18610;49.916;8.284;2023-07-31T01:31:16;18.10;99.90
32097;DHT22;18610;49.916;8.284;2023-07-31T01:33:47;18.20;99.90
32097;DHT22;18610;49.916;8.284;2023-07-31T01:36:14;18.20;99.90
32097;DHT22;18610;49.916;8.284;2023-07-31T01:38:41;18.30;99.90
32097;DHT22;18610;49.916;8.284;2023-07-31T01:41:09;18.20;99.90
32097;DHT22;18610;49.916;8.284;2023-07-31T01:43:36;18.30;99.90
32097;DHT22;18610;49.916;8.284;2023-07-31T01:46:02;18.30;99.90
32097;DHT22;18610;49.916;8.284;2023-07-31T01:48:29;18.30;99.90
32097;DHT22;18610;49.916;8.284;2023-07-31T01:51:01;18.40;99.90
32097;DHT22;18610;49.916;8.284;2023-07-31T01:53:27;18.30;99.90
32097;DHT22;18610;49.916;8.284;2023-07-31T01:55:54;18.30;99.90
32097;DHT22;18610;49.916;8.284;2023-07-31T01:58:22;18.30;99.90
32097;DHT22;18610;49.916;8.284;2023-07-31T02:00:49;18.20;99.90
32097;DHT22;18610;49.916;8.284;2023-07-31T02:03:15;18.20;99.90
32097;DHT22;18610;49.916;8.284;2023-07-31T02:05:44;18.30;99.90
32097;DHT22;18610;49.916;8.284;2023-07-31T02:08:11;18.30;99.90
32097;DHT22;18610;49.916;8.284;2023-07-31T02:10:38;18.20;99.90
32097;DHT22;18610;49.916;8.284;2023-07-31T02:13:04;18.20;99.90
32097;DHT22;18610;49.916;8.284;2023-07-31T02:15:33;18.20;99.90
32097;DHT22;18610;49.916;8.284;2023-07-31T02:17:59;18.20;99.90
32097;DHT22;18610;49.916;8.284;2023-07-31T02:20:26;18.20;99.90
32097;DHT22;18610;49.916;8.284;2023-07-31T02:22:53;18.20;99.90
32097;DHT22;18610;49.916;8.284;2023-07-31T02:25:19;18.20;99.90
32097;DHT22;18610;49.916;8.284;2023-07-31T02:27:46;18.20;99.90
32097;DHT22;18610;49.916;8.284;2023-07-31T02:30:13;18.20;99.90
32097;DHT22;18610;49.916;8.284;2023-07-31T02:32:41;18.20;99.90
32097;DHT22;18610;49.916;8.284;2023-07-31T02:35:07;18.20;99.90
32097;DHT22;18610;49.916;8.284;2023-07-31T02:37:34;18.20;99.90
32097;DHT22;18610;49.916;8.284;2023-07-31T02:40:01;18.10;99.90
32097;DHT22;18610;49.916;8.284;2023-07-31T02:42:28;18.10;99.90
32097;DHT22;18610;49.916;8.284;2023-07-31T02:44:54;18.20;99.90
32097;DHT22;18610;49.916;8.284;2023-07-31T02:47:21;18.20;99.90
32097;DHT22;18610;49.916;8.284;2023-07-31T02:49:50;18.20;99.90
32097;DHT22;18610;49.916;8.284;2023-07-31T02:52:16;18.10;99.90
32097;DHT22;18610;49.916;8.284;2023-07-31T02:54:43;18.10;99.90
32097;DHT22;18610;49.916;8.284;2023-07-31T02:57:10;18.10;99.90
32097;DHT22;18610;49.916;8.284;2023-07-31T02:59:36;18.10;99.90
32097;DHT22;18610;49.916;8.284;2023-07-31T03:02:03;18.10;99.90
32097;DHT22;18610;49.916;8.284;2023-07-31T03:04:33;18.10;99.90
32097;DHT22;18610;49.916;8.284;2023-07-31T03:07:01;18.10;99.90
32097;DHT22;18610;49.916;8.284;2023-07-31T03:09:28;18.20;99.90
32097;DHT22;18610;49.916;8.284;2023-07-31T03:11:54;18.20;99.90
32097;DHT22;18610;49.916;8.284;2023-07-31T03:14:21;18.10;99.90
32097;DHT22;18610;49.916;8.284;2023-07-31T03:16:48;18.10;99.90
32097;DHT22;18610;49.916;8.284;2023-07-31T03:19:14;18.10;99.90
32097;DHT22;18610;49.916;8.284;2023-07-31T03:21:41;18.10;99.90
32097;DHT22;18610;49.916;8.284;2023-07-31T03:24:09;18.10;99.90
32097;DHT22;18610;49.916;8.284;2023-07-31T03:26:37;18.10;99.90
32097;DHT22;18610;49.916;8.284;2023-07-31T03:29:06;18.10;99.90
32097;DHT22;18610;49.916;8.284;2023-07-31T03:31:33;18.00;99.90
32097;DHT22;18610;49.916;8.284;2023-07-31T03:34:00;18.00;99.90
32097;DHT22;18610;49.916;8.284;2023-07-31T03:36:26;18.00;99.90
32097;DHT22;18610;49.916;8.284;2023-07-31T03:38:53;17.90;99.90
32097;DHT22;18610;49.916;8.284;2023-07-31T03:41:21;17.90;99.90
32097;DHT22;18610;49.916;8.284;2023-07-31T03:43:50;17.90;99.90
32097;DHT22;18610;49.916;8.284;2023-07-31T03:46:17;17.80;99.90
32097;DHT22;18610;49.916;8.284;2023-07-31T03:48:44;17.80;99.90
32097;DHT22;18610;49.916;8.284;2023-07-31T03:51:11;17.70;99.90
32097;DHT22;18610;49.916;8.284;2023-07-31T03:53:37;17.70;99.90
32097;DHT22;18610;49.916;8.284;2023-07-31T03:56:04;17.70;99.90
32097;DHT22;18610;49.916;8.284;2023-07-31T03:58:32;17.70;99.90
32097;DHT22;18610;49.916;8.284;2023-07-31T04:01:00;17.60;99.90
32097;DHT22;18610;49.916;8.284;2023-07-31T04:03:28;17.60;99.90
32097;DHT22;18610;49.916;8.284;2023-07-31T04:05:55;17.60;99.90
32097;DHT22;18610;49.916;8.284;2023-07-31T04:08:21;17.50;99.90
32097;DHT22;18610;49.916;8.284;2023-07-31T04:10:48;17.60;99.90
32097;DHT22;18610;49.916;8.284;2023-07-31T04:13:15;17.60;99.90
32097;DHT22;18610;49.916;8.284;2023-07-31T04:15:48;17.50;99.90
32097;DHT22;18610;49.916;8.284;2023-07-31T04:18:15;17.50;99.90
32097;DHT22;18610;49.916;8.284;2023-07-31T04:20:44;17.50;99.90
32097;DHT22;18610;49.916;8.284;2023-07-31T04:23:11;17.50;99.90
32097;DHT22;18610;49.916;8.284;2023-07-31T04:25:38;17.50;99.90
32097;DHT22;18610;49.916;8.284;2023-07-31T04:28:05;17.50;99.90
32097;DHT22;18610;49.916;8.284;2023-07-31T04:30:32;17.60;99.90
32097;DHT22;18610;49.916;8.284;2023-07-31T04:33:02;17.60;99.90
32097;DHT22;18610;49.916;8.284;2023-07-31T04:35:28;17.50;99.90
32097;DHT22;18610;49.916;8.284;2023-07-31T04:37:55;17.50;99.90
32097;DHT22;18610;49.916;8.284;2023-07-31T04:40:22;17.60;99.90
32097;DHT22;18610;49.916;8.284;2023-07-31T04:42:48;17.60;99.90
32097;DHT22;18610;49.916;8.284;2023-07-31T04:45:15;17.60;99.90
32097;DHT22;18610;49.916;8.284;2023-07-31T04:47:42;17.70;99.90
32097;DHT22;18610;49.916;8.284;2023-07-31T04:50:10;17.60;99.90
32097;DHT22;18610;49.916;8.284;2023-07-31T04:52:37;17.70;99.90
32097;DHT22;18610;49.916;8.284;2023-07-31T04:55:04;17.60;99.90
32097;DHT22;18610;49.916;8.284;2023-07-31T04:57:30;17.70;99.90
32097;DHT22;18610;49.916;8.284;2023-07-31T04:59:57;17.70;99.90
32097;DHT22;18610;49.916;8.284;2023-07-31T05:02:24;17.70;99.90
32097;DHT22;18610;49.916;8.284;2023-07-31T05:04:53;17.70;99.90
32097;DHT22;18610;49.916;8.284;2023-07-31T05:07:21;17.70;99.90
32097;DHT22;18610;49.916;8.284;2023-07-31T05:09:48;17.70;99.90
32097;DHT22;18610;49.916;8.284;2023-07-31T05:12:15;17.60;99.90
32097;DHT22;18610;49.916;8.284;2023-07-31T05:14:41;17.60;99.90
32097;DHT22;18610;49.916;8.284;2023-07-31T05:17:08;17.60;99.90
32097;DHT22;18610;49.916;8.284;2023-07-31T05:19:35;17.60;99.90
32097;DHT22;18610;49.916;8.284;2023-07-31T05:22:01;17.60;99.90
32097;DHT22;18610;49.916;8.284;2023-07-31T05:24:29;17.60;99.90
32097;DHT22;18610;49.916;8.284;2023-07-31T05:26:56;17.60;99.90
32097;DHT22;18610;49.916;8.284;2023-07-31T05:29:23;17.60;99.90
32097;DHT22;18610;49.916;8.284;2023-07-31T05:31:49;17.60;99.90
32097;DHT22;18610;49.916;8.284;2023-07-31T05:34:16;17.50;99.90
32097;DHT22;18610;49.916;8.284;2023-07-31T05:36:43;17.60;99.90
32097;DHT22;18610;49.916;8.284;2023-07-31T05:39:09;17.60;99.90
32097;DHT22;18610;49.916;8.284;2023-07-31T05:41:37;17.50;99.90
32097;DHT22;18610;49.916;8.284;2023-07-31T05:44:04;17.50;99.90
32097;DHT22;18610;49.916;8.284;2023-07-31T05:46:31;17.60;99.90
32097;DHT22;18610;49.916;8.284;2023-07-31T05:48:58;17.60;99.90
32097;DHT22;18610;49.916;8.284;2023-07-31T05:51:26;17.60;99.90
32097;DHT22;18610;49.916;8.284;2023-07-31T05:53:53;17.60;99.90
32097;DHT22;18610;49.916;8.284;2023-07-31T05:56:22;17.70;99.90
32097;DHT22;18610;49.916;8.284;2023-07-31T05:58:50;17.70;99.90
32097;DHT22;18610;49.916;8.284;2023-07-31T06:01:17;17.80;99.90
32097;DHT22;18610;49.916;8.284;2023-07-31T06:03:44;17.90;99.90
32097;DHT22;18610;49.916;8.284;2023-07-31T06:06:11;18.00;99.90
32097;DHT22;18610;49.916;8.284;2023-07-31T06:08:38;18.00;99.90
32097;DHT22;18610;49.916;8.284;2023-07-31T06:11:06;18.10;99.90
32097;DHT22;18610;49.916;8.284;2023-07-31T06:13:34;18.20;99.90
32097;DHT22;18610;49.916;8.284;2023-07-31T06:16:02;18.30;99.90
32097;DHT22;18610;49.916;8.284;2023-07-31T06:18:30;18.50;99.90
32097;DHT22;18610;49.916;8.284;2023-07-31T06:20:57;18.70;99.90
32097;DHT22;18610;49.916;8.284;2023-07-31T06:23:24;18.90;99.90
32097;DHT22;18610;49.916;8.284;2023-07-31T06:25:50;19.00;99.90
32097;DHT22;18610;49.916;8.284;2023-07-31T06:28:19;19.10;99.90
32097;DHT22;18610;49.916;8.284;2023-07-31T06:30:46;19.20;99.90
32097;DHT22;18610;49.916;8.284;2023-07-31T06:33:14;19.10;99.90
32097;DHT22;18610;49.916;8.284;2023-07-31T06:35:41;19.10;99.90
32097;DHT22;18610;49.916;8.284;2023-07-31T06:38:08;19.10;99.90
32097;DHT22;18610;49.916;8.284;2023-07-31T06:40:34;19.00;99.90
32097;DHT22;18610;49.916;8.284;2023-07-31T06:43:01;19.00;99.90
32097;DHT22;18610;49.916;8.284;2023-07-31T06:45:33;19.10;99.90
32097;DHT22;18610;49.916;8.284;2023-07-31T06:48:00;19.10;99.90
32097;DHT22;18610;49.916;8.284;2023-07-31T06:50:28;19.20;99.90
32097;DHT22;18610;49.916;8.284;2023-07-31T06:52:55;19.30;99.90
32097;DHT22;18610;49.916;8.284;2023-07-31T06:55:22;19.30;99.90
32097;DHT22;18610;49.916;8.284;2023-07-31T06:57:51;19.40;99.90
32097;DHT22;18610;49.916;8.284;2023-07-31T07:00:18;19.50;99.90
32097;DHT22;18610;49.916;8.284;2023-07-31T07:02:46;19.60;99.90
32097;DHT22;18610;49.916;8.284;2023-07-31T07:05:14;19.60;99.90
32097;DHT22;18610;49.916;8.284;2023-07-31T07:07:42;19.70;99.90
32097;DHT22;18610;49.916;8.284;2023-07-31T07:10:09;19.80;99.90
32097;DHT22;18610;49.916;8.284;2023-07-31T07:12:36;19.80;99.90
32097;DHT22;18610;49.916;8.284;2023-07-31T07:15:04;19.90;99.90
32097;DHT22;18610;49.916;8.284;2023-07-31T07:17:30;19.90;99.90
32097;DHT22;18610;49.916;8.284;2023-07-31T07:19:57;20.10;99.90
32097;DHT22;18610;49.916;8.284;2023-07-31T07:22:24;20.10;99.90
32097;DHT22;18610;49.916;8.284;2023-07-31T07:24:52;20.10;99.90
32097;DHT22;18610;49.916;8.284;2023-07-31T07:27:19;20.10;99.90
32097;DHT22;18610;49.916;8.284;2023-07-31T07:29:46;20.20;99.90
32097;DHT22;18610;49.916;8.284;2023-07-31T07:32:13;20.30;99.90
32097;DHT22;18610;49.916;8.284;2023-07-31T07:34:39;20.50;99.90
32097;DHT22;18610;49.916;8.284;2023-07-31T07:37:06;20.60;99.90
32097;DHT22;18610;49.916;8.284;2023-07-31T07:39:33;20.60;99.90
32097;DHT22;18610;49.916;8.284;2023-07-31T07:42:01;20.60;99.90
32097;DHT22;18610;49.916;8.284;2023-07-31T07:44:28;20.60;99.90
32097;DHT22;18610;49.916;8.284;2023-07-31T07:46:54;20.60;99.90
32097;DHT22;18610;49.916;8.284;2023-07-31T07:49:21;20.50;99.90
32097;DHT22;18610;49.916;8.284;2023-07-31T07:51:48;20.60;99.90
32097;DHT22;18610;49.916;8.284;2023-07-31T07:54:15;20.80;99.90
32097;DHT22;18610;49.916;8.284;2023-07-31T07:56:43;20.90;99.90
32097;DHT22;18610;49.916;8.284;2023-07-31T07:59:11;21.00;99.90
32097;DHT22;18610;49.916;8.284;2023-07-31T08:01:37;21.10;99.90
32097;DHT22;18610;49.916;8.284;2023-07-31T08:04:04;21.20;99.90
32097;DHT22;18610;49.916;8.284;2023-07-31T08:06:31;21.30;99.90
32097;DHT22;18610;49.916;8.284;2023-07-31T08:08:57;21.50;99.90
32097;DHT22;18610;49.916;8.284;2023-07-31T08:11:24;21.50;99.90
32097;DHT22;18610;49.916;8.284;2023-07-31T08:13:50;21.40;99.90
32097;DHT22;18610;49.916;8.284;2023-07-31T08:16:18;21.30;99.90
32097;DHT22;18610;49.916;8.284;2023-07-31T08:18:45;21.20;99.90
32097;DHT22;18610;49.916;8.284;2023-07-31T08:21:12;21.10;99.90
32097;DHT22;18610;49.916;8.284;2023-07-31T08:23:39;21.00;99.90
32097;DHT22;18610;49.916;8.284;2023-07-31T08:26:05;20.90;99.90
32097;DHT22;18610;49.916;8.284;2023-07-31T08:28:32;20.90;99.90
32097;DHT22;18610;49.916;8.284;2023-07-31T08:31:00;20.80;99.90
32097;DHT22;18610;49.916;8.284;2023-07-31T08:33:28;20.80;99.90
32097;DHT22;18610;49.916;8.284;2023-07-31T08:35:55;20.80;99.90
32097;DHT22;18610;49.916;8.284;2023-07-31T08:38:21;20.90;99.90
32097;DHT22;18610;49.916;8.284;2023-07-31T08:40:50;20.90;99.90
32097;DHT22;18610;49.916;8.284;2023-07-31T08:43:18;20.80;99.90
32097;DHT22;18610;49.916;8.284;2023-07-31T08:45:47;20.80;99.90
32097;DHT22;18610;49.916;8.284;2023-07-31T08:48:15;20.80;99.90
32097;DHT22;18610;49.916;8.284;2023-07-31T08:50:45;20.70;99.90
32097;DHT22;18610;49.916;8.284;2023-07-31T08:53:12;20.70;99.90
32097;DHT22;18610;49.916;8.284;2023-07-31T08:55:38;20.70;99.90
32097;DHT22;18610;49.916;8.284;2023-07-31T08:58:06;20.70;99.90
32097;DHT22;18610;49.916;8.284;2023-07-31T09:00:36;20.70;99.90
32097;DHT22;18610;49.916;8.284;2023-07-31T09:03:08;20.70;99.90
32097;DHT22;18610;49.916;8.284;2023-07-31T09:05:35;20.80;99.90
32097;DHT22;18610;49.916;8.284;2023-07-31T09:08:08;20.80;99.90
32097;DHT22;18610;49.916;8.284;2023-07-31T09:10:35;20.80;99.90
32097;DHT22;18610;49.916;8.284;2023-07-31T09:13:06;20.90;99.90
32097;DHT22;18610;49.916;8.284;2023-07-31T09:15:33;21.00;99.90
32097;DHT22;18610;49.916;8.284;2023-07-31T09:18:01;21.30;99.90
32097;DHT22;18610;49.916;8.284;2023-07-31T09:20:28;21.70;99.90
32097;DHT22;18610;49.916;8.284;2023-07-31T09:22:56;22.00;99.90
32097;DHT22;18610;49.916;8.284;2023-07-31T09:25:25;22.20;99.40
32097;DHT22;18610;49.916;8.284;2023-07-31T09:27:57;22.30;99.00
32097;DHT22;18610;49.916;8.284;2023-07-31T09:30:24;22.20;98.70
32097;DHT22;18610;49.916;8.284;2023-07-31T09:32:52;22.30;98.50
32097;DHT22;18610;49.916;8.284;2023-07-31T09:35:28;22.20;98.40
32097;DHT22;18610;49.916;8.284;2023-07-31T09:37:58;22.20;98.40
32097;DHT22;18610;49.916;8.284;2023-07-31T09:40:27;22.20;97.90
32097;DHT22;18610;49.916;8.284;2023-07-31T09:43:13;22.10;97.80
32097;DHT22;18610;49.916;8.284;2023-07-31T09:45:57;22.10;98.50
32097;DHT22;18610;49.916;8.284;2023-07-31T09:48:24;22.00;97.60
32097;DHT22;18610;49.916;8.284;2023-07-31T09:50:53;22.00;98.10
32097;DHT22;18610;49.916;8.284;2023-07-31T09:53:30;22.10;97.80
32097;DHT22;18610;49.916;8.284;2023-07-31T09:55:59;22.20;97.90
32097;DHT22;18610;49.916;8.284;2023-07-31T09:58:28;22.30;97.80
32097;DHT22;18610;49.916;8.284;2023-07-31T10:00:57;22.40;97.30
32097;DHT22;18610;49.916;8.284;2023-07-31T10:03:25;22.40;97.00
32097;DHT22;18610;49.916;8.284;2023-07-31T10:05:53;22.40;97.20
32097;DHT22;18610;49.916;8.284;2023-07-31T10:08:26;22.40;97.40
32097;DHT22;18610;49.916;8.284;2023-07-31T10:10:55;22.30;97.30
32097;DHT22;18610;49.916;8.284;2023-07-31T10:13:27;22.40;97.30
32097;DHT22;18610;49.916;8.284;2023-07-31T10:15:54;22.30;97.30
32097;DHT22;18610;49.916;8.284;2023-07-31T10:18:25;22.30;97.80
32097;DHT22;18610;49.916;8.284;2023-07-31T10:20:53;22.30;96.70
32097;DHT22;18610;49.916;8.284;2023-07-31T10:23:22;22.20;97.00
32097;DHT22;18610;49.916;8.284;2023-07-31T10:25:50;22.20;96.90
32097;DHT22;18610;49.916;8.284;2023-07-31T10:28:17;22.20;97.30
32097;DHT22;18610;49.916;8.284;2023-07-31T10:30:46;22.30;97.60
32097;DHT22;18610;49.916;8.284;2023-07-31T10:33:12;22.40;96.80
32097;DHT22;18610;49.916;8.284;2023-07-31T10:35:41;22.50;96.50
32097;DHT22;18610;49.916;8.284;2023-07-31T10:38:12;22.60;96.50
32097;DHT22;18610;49.916;8.284;2023-07-31T10:40:40;22.80;96.20
32097;DHT22;18610;49.916;8.284;2023-07-31T10:43:07;22.90;96.10
32097;DHT22;18610;49.916;8.284;2023-07-31T10:45:38;22.80;96.50
32097;DHT22;18610;49.916;8.284;2023-07-31T10:48:07;22.80;96.60
32097;DHT22;18610;49.916;8.284;2023-07-31T10:50:45;22.80;96.20
32097;DHT22;18610;49.916;8.284;2023-07-31T10:53:23;22.80;95.50
32097;DHT22;18610;49.916;8.284;2023-07-31T10:55:50;22.80;96.00
32097;DHT22;18610;49.916;8.284;2023-07-31T10:58:18;22.90;96.40
32097;DHT22;18610;49.916;8.284;2023-07-31T11:00:45;22.90;96.00
32097;DHT22;18610;49.916;8.284;2023-07-31T11:03:15;22.90;95.90
32097;DHT22;18610;49.916;8.284;2023-07-31T11:05:51;22.90;96.00
32097;DHT22;18610;49.916;8.284;2023-07-31T11:08:20;22.80;95.30
32097;DHT22;18610;49.916;8.284;2023-07-31T11:10:49;22.80;95.40
32097;DHT22;18610;49.916;8.284;2023-07-31T11:13:17;22.80;95.60
32097;DHT22;18610;49.916;8.284;2023-07-31T11:15:43;22.90;95.20
32097;DHT22;18610;49.916;8.284;2023-07-31T11:18:10;22.90;95.70
32097;DHT22;18610;49.916;8.284;2023-07-31T11:20:38;23.10;95.30
32097;DHT22;18610;49.916;8.284;2023-07-31T11:23:08;23.10;94.90
32097;DHT22;18610;49.916;8.284;2023-07-31T11:25:36;23.20;95.10
32097;DHT22;18610;49.916;8.284;2023-07-31T11:28:04;23.20;94.40
32097;DHT22;18610;49.916;8.284;2023-07-31T11:30:31;23.20;94.80
32097;DHT22;18610;49.916;8.284;2023-07-31T11:32:57;23.20;94.60
32097;DHT22;18610;49.916;8.284;2023-07-31T11:35:24;23.20;95.00
32097;DHT22;18610;49.916;8.284;2023-07-31T11:37:52;23.30;95.10
32097;DHT22;18610;49.916;8.284;2023-07-31T11:40:19;23.40;94.90
32097;DHT22;18610;49.916;8.284;2023-07-31T11:42:46;23.50;94.50
32097;DHT22;18610;49.916;8.284;2023-07-31T11:45:13;23.80;93.70
32097;DHT22;18610;49.916;8.284;2023-07-31T11:47:39;23.90;93.60
32097;DHT22;18610;49.916;8.284;2023-07-31T11:50:10;23.90;93.20
32097;DHT22;18610;49.916;8.284;2023-07-31T11:52:39;24.00;93.60
32097;DHT22;18610;49.916;8.284;2023-07-31T11:55:09;24.40;93.30
32097;DHT22;18610;49.916;8.284;2023-07-31T11:57:37;24.60;93.00
32097;DHT22;18610;49.916;8.284;2023-07-31T12:00:09;25.00;92.40
32097;DHT22;18610;49.916;8.284;2023-07-31T12:02:37;25.10;91.70
32097;DHT22;18610;49.916;8.284;2023-07-31T12:05:05;25.20;91.40
32097;DHT22;18610;49.916;8.284;2023-07-31T12:07:44;25.20;91.20
32097;DHT22;18610;49.916;8.284;2023-07-31T12:10:23;25.00;90.30
32097;DHT22;18610;49.916;8.284;2023-07-31T12:12:59;24.60;90.40
32097;DHT22;18610;49.916;8.284;2023-07-31T12:15:33;24.40;91.10
32097;DHT22;18610;49.916;8.284;2023-07-31T12:18:03;24.30;92.20
32097;DHT22;18610;49.916;8.284;2023-07-31T12:20:30;24.20;92.50
32097;DHT22;18610;49.916;8.284;2023-07-31T12:22:57;24.30;92.00
32097;DHT22;18610;49.916;8.284;2023-07-31T12:25:30;24.40;91.50
32097;DHT22;18610;49.916;8.284;2023-07-31T12:27:57;24.40;91.80
32097;DHT22;18610;49.916;8.284;2023-07-31T12:30:28;24.60;91.30
32097;DHT22;18610;49.916;8.284;2023-07-31T12:33:02;24.90;91.00
32097;DHT22;18610;49.916;8.284;2023-07-31T12:35:34;25.20;90.40
32097;DHT22;18610;49.916;8.284;2023-07-31T12:38:01;25.20;89.20
32097;DHT22;18610;49.916;8.284;2023-07-31T12:40:29;25.20;89.20
32097;DHT22;18610;49.916;8.284;2023-07-31T12:42:56;25.20;90.10
32097;DHT22;18610;49.916;8.284;2023-07-31T12:45:23;25.50;89.80
32097;DHT22;18610;49.916;8.284;2023-07-31T12:47:50;25.60;88.80
32097;DHT22;18610;49.916;8.284;2023-07-31T12:50:16;25.80;88.90
32097;DHT22;18610;49.916;8.284;2023-07-31T12:52:43;25.90;88.10
32097;DHT22;18610;49.916;8.284;2023-07-31T12:55:10;26.00;86.60
32097;DHT22;18610;49.916;8.284;2023-07-31T12:57:40;26.10;86.70
32097;DHT22;18610;49.916;8.284;2023-07-31T13:00:08;26.00;86.80
32097;DHT22;18610;49.916;8.284;2023-07-31T13:02:34;26.10;88.10
32097;DHT22;18610;49.916;8.284;2023-07-31T13:05:01;26.20;86.20
32097;DHT22;18610;49.916;8.284;2023-07-31T13:07:28;26.10;85.80
32097;DHT22;18610;49.916;8.284;2023-07-31T13:09:54;26.00;86.50
32097;DHT22;18610;49.916;8.284;2023-07-31T13:12:21;25.70;86.40
32097;DHT22;18610;49.916;8.284;2023-07-31T13:14:50;25.40;86.80
32097;DHT22;18610;49.916;8.284;2023-07-31T13:17:17;25.20;88.50
32097;DHT22;18610;49.916;8.284;2023-07-31T13:19:44;25.20;88.60
32097;DHT22;18610;49.916;8.284;2023-07-31T13:22:11;25.10;89.30
32097;DHT22;18610;49.916;8.284;2023-07-31T13:24:37;25.00;88.50
32097;DHT22;18610;49.916;8.284;2023-07-31T13:27:04;25.00;90.00
32097;DHT22;18610;49.916;8.284;2023-07-31T13:29:31;24.80;88.70
32097;DHT22;18610;49.916;8.284;2023-07-31T13:31:59;24.60;90.40
32097;DHT22;18610;49.916;8.284;2023-07-31T13:34:26;24.60;91.10
32097;DHT22;18610;49.916;8.284;2023-07-31T13:36:54;24.50;90.60
32097;DHT22;18610;49.916;8.284;2023-07-31T13:39:20;24.40;91.00
32097;DHT22;18610;49.916;8.284;2023-07-31T13:41:47;24.40;91.10
32097;DHT22;18610;49.916;8.284;2023-07-31T13:44:14;24.40;91.00
32097;DHT22;18610;49.916;8.284;2023-07-31T13:46:41;24.20;91.10
32097;DHT22;18610;49.916;8.284;2023-07-31T13:49:09;24.30;91.50
32097;DHT22;18610;49.916;8.284;2023-07-31T13:51:36;24.30;91.50
32097;DHT22;18610;49.916;8.284;2023-07-31T13:54:04;24.20;91.40
32097;DHT22;18610;49.916;8.284;2023-07-31T13:56:32;24.00;91.60
32097;DHT22;18610;49.916;8.284;2023-07-31T13:58:58;23.80;92.10
32097;DHT22;18610;49.916;8.284;2023-07-31T14:01:29;23.60;92.40
32097;DHT22;18610;49.916;8.284;2023-07-31T14:03:56;23.40;93.10
32097;DHT22;18610;49.916;8.284;2023-07-31T14:06:24;23.20;93.60
32097;DHT22;18610;49.916;8.284;2023-07-31T14:08:50;23.10;93.90
32097;DHT22;18610;49.916;8.284;2023-07-31T14:11:17;23.00;93.70
32097;DHT22;18610;49.916;8.284;2023-07-31T14:13:44;22.90;94.30
32097;DHT22;18610;49.916;8.284;2023-07-31T14:16:10;22.80;94.50
32097;DHT22;18610;49.916;8.284;2023-07-31T14:18:37;22.70;94.50
32097;DHT22;18610;49.916;8.284;2023-07-31T14:21:04;22.60;94.60
32097;DHT22;18610;49.916;8.284;2023-07-31T14:23:32;22.60;95.00
32097;DHT22;18610;49.916;8.284;2023-07-31T14:25:58;22.60;95.40
32097;DHT22;18610;49.916;8.284;2023-07-31T14:28:25;22.70;95.20
32097;DHT22;18610;49.916;8.284;2023-07-31T14:30:52;22.60;95.10
32097;DHT22;18610;49.916;8.284;2023-07-31T14:33:18;22.70;94.90
32097;DHT22;18610;49.916;8.284;2023-07-31T14:35:45;22.80;94.70
32097;DHT22;18610;49.916;8.284;2023-07-31T14:38:11;22.80;94.80
32097;DHT22;18610;49.916;8.284;2023-07-31T14:40:40;22.90;94.70
32097;DHT22;18610;49.916;8.284;2023-07-31T14:43:07;22.90;94.40
32097;DHT22;18610;49.916;8.284;2023-07-31T14:45:34;22.90;94.30
32097;DHT22;18610;49.916;8.284;2023-07-31T14:48:00;22.90;94.20
32097;DHT22;18610;49.916;8.284;2023-07-31T14:50:28;22.90;94.30
32097;DHT22;18610;49.916;8.284;2023-07-31T14:52:55;22.80;94.30
32097;DHT22;18610;49.916;8.284;2023-07-31T14:55:21;22.70;94.60
32097;DHT22;18610;49.916;8.284;2023-07-31T14:57:49;22.70;94.80
32097;DHT22;18610;49.916;8.284;2023-07-31T15:00:16;22.70;95.00
32097;DHT22;18610;49.916;8.284;2023-07-31T15:02:43;22.70;94.60
32097;DHT22;18610;49.916;8.284;2023-07-31T15:05:10;22.60;94.50
32097;DHT22;18610;49.916;8.284;2023-07-31T15:07:37;22.70;94.70
32097;DHT22;18610;49.916;8.284;2023-07-31T15:10:04;22.80;94.70
32097;DHT22;18610;49.916;8.284;2023-07-31T15:12:31;22.90;94.50
32097;DHT22;18610;49.916;8.284;2023-07-31T15:14:59;22.90;93.80
32097;DHT22;18610;49.916;8.284;2023-07-31T15:17:26;22.90;93.80
32097;DHT22;18610;49.916;8.284;2023-07-31T15:19:54;23.00;93.40
32097;DHT22;18610;49.916;8.284;2023-07-31T15:22:20;23.00;93.00
32097;DHT22;18610;49.916;8.284;2023-07-31T15:24:47;22.90;93.40
32097;DHT22;18610;49.916;8.284;2023-07-31T15:27:14;22.90;93.30
32097;DHT22;18610;49.916;8.284;2023-07-31T15:29:41;22.80;93.00
32097;DHT22;18610;49.916;8.284;2023-07-31T15:32:09;22.80;93.10
32097;DHT22;18610;49.916;8.284;2023-07-31T15:34:36;22.60;93.30